Terminal Aerodrome Forecast
Issued by NWS Bismarck, ND

Home | Current Version | Previous Version | Text Only | Print | Product List | Glossary Off
Versions: 1 2 3 4 5 6 7 8 9 10 11 12 13 14 15 16 17 18 19 20 21 22

873
FTUS43 KBIS 251650 AAB
TAFBIS
TAF AMD
KBIS 251650Z 2517/2612 04006KT P6SM BKN025 OVC035
     FM260200 07004KT P6SM OVC030
     FM261100 00000KT P6SM BKN020=

USA.gov is the U.S. government's official web portal to all federal, state and local government web resources and services.